createdAt,value
2017-12-21T00:01:28.449Z,33.87
2017-12-21T00:03:56.488Z,32.87
2017-12-21T00:06:25.098Z,29.53
2017-12-21T00:08:52.735Z,35.83
2017-12-21T00:11:21.710Z,38.20
2017-12-21T00:13:50.013Z,33.40
2017-12-21T00:16:17.564Z,31.93
2017-12-21T00:18:45.093Z,32.07
2017-12-21T00:21:13.407Z,35.50
2017-12-21T00:23:40.933Z,29.70
2017-12-21T00:26:09.249Z,33.73
2017-12-21T00:28:36.773Z,34.00
2017-12-21T00:31:05.102Z,36.57
2017-12-21T00:33:32.626Z,34.53
2017-12-21T00:36:00.160Z,33.40
2017-12-21T00:38:27.963Z,28.10
2017-12-21T00:40:55.652Z,31.17
2017-12-21T00:43:23.708Z,32.53
2017-12-21T00:46:03.209Z,27.37
2017-12-21T00:48:31.642Z,28.97
2017-12-21T00:50:59.268Z,27.30
2017-12-21T00:53:27.048Z,23.43
2017-12-21T00:55:55.346Z,24.67
2017-12-21T00:58:23.101Z,24.63
2017-12-21T01:00:50.660Z,26.57
2017-12-21T01:03:18.179Z,22.23
2017-12-21T01:05:45.708Z,24.70
2017-12-21T01:08:13.995Z,24.20
2017-12-21T01:10:42.401Z,30.40
2017-12-21T01:13:10.265Z,23.97
2017-12-21T01:15:37.773Z,25.53
2017-12-21T01:18:06.050Z,28.30
2017-12-21T01:20:33.564Z,28.67
2017-12-21T01:23:01.076Z,33.80
2017-12-21T01:25:28.571Z,29.20
2017-12-21T01:27:56.869Z,33.13
2017-12-21T01:30:24.383Z,32.37
2017-12-21T01:32:51.888Z,30.17
2017-12-21T01:35:19.403Z,35.20
2017-12-21T01:37:46.908Z,35.67
2017-12-21T01:40:14.423Z,30.77
2017-12-21T01:42:42.680Z,33.70
2017-12-21T01:45:10.204Z,36.67
2017-12-21T01:47:37.705Z,37.13
2017-12-21T01:50:05.207Z,40.00
2017-12-21T01:52:32.713Z,46.43
2017-12-21T01:55:00.221Z,52.50
2017-12-21T01:57:27.747Z,58.10
2017-12-21T01:59:55.247Z,50.53
2017-12-21T02:02:22.767Z,64.27
2017-12-21T02:04:51.043Z,65.60
2017-12-21T02:07:18.543Z,75.67
2017-12-21T02:09:46.055Z,65.23
2017-12-21T02:12:13.543Z,70.63
2017-12-21T02:14:41.070Z,56.00
2017-12-21T02:17:08.563Z,72.40
2017-12-21T02:19:36.095Z,66.23
2017-12-21T02:22:03.594Z,73.40
2017-12-21T02:24:31.099Z,91.33
2017-12-21T02:26:58.619Z,80.27
2017-12-21T02:29:26.126Z,77.13
2017-12-21T02:31:53.669Z,79.50
2017-12-21T02:34:21.171Z,72.47
2017-12-21T02:36:48.675Z,77.07
2017-12-21T02:39:16.967Z,75.37
2017-12-21T02:41:45.231Z,76.17
2017-12-21T02:44:12.739Z,70.13
2017-12-21T02:46:40.280Z,76.73
2017-12-21T02:49:07.800Z,70.37
2017-12-21T02:51:35.291Z,75.07
2017-12-21T02:54:02.812Z,60.90
2017-12-21T02:56:31.080Z,69.63
2017-12-21T02:58:58.578Z,65.37
2017-12-21T03:01:26.131Z,69.57
2017-12-21T03:03:54.399Z,74.13
2017-12-21T03:06:21.968Z,60.73
2017-12-21T03:08:49.490Z,69.57
2017-12-21T03:11:17.003Z,64.77
2017-12-21T03:13:44.523Z,65.90
2017-12-21T03:16:12.055Z,51.47
2017-12-21T03:18:39.551Z,67.90
2017-12-21T03:21:07.819Z,67.27
2017-12-21T03:23:35.357Z,53.07
2017-12-21T03:26:02.881Z,50.30
2017-12-21T03:28:31.151Z,46.07
2017-12-21T03:30:58.668Z,52.43
2017-12-21T03:33:26.177Z,55.13
2017-12-21T03:35:53.751Z,53.07
2017-12-21T03:38:21.275Z,48.17
2017-12-21T03:40:48.767Z,48.03
2017-12-21T03:43:16.811Z,49.47
2017-12-21T03:45:44.359Z,46.13
2017-12-21T03:48:11.858Z,53.83
2017-12-21T03:50:39.362Z,36.20
2017-12-21T03:53:06.882Z,40.83
2017-12-21T03:55:35.157Z,37.27
2017-12-21T03:58:02.962Z,44.63
2017-12-21T04:00:30.479Z,45.33
2017-12-21T04:02:57.983Z,39.77
2017-12-21T04:05:26.259Z,47.80
2017-12-21T04:07:53.768Z,46.57
2017-12-21T04:10:21.507Z,45.37
2017-12-21T04:12:49.011Z,45.50
2017-12-21T04:15:16.507Z,43.47
2017-12-21T04:17:44.018Z,46.23
2017-12-21T04:20:11.516Z,52.17
2017-12-21T04:22:39.014Z,46.13
2017-12-21T04:25:06.526Z,53.30
2017-12-21T04:27:34.031Z,44.27
2017-12-21T04:30:01.543Z,47.83
2017-12-21T04:32:29.163Z,50.63
2017-12-21T04:34:57.428Z,57.90
2017-12-21T04:37:24.927Z,55.33
2017-12-21T04:39:53.219Z,54.30
2017-12-21T04:42:20.728Z,69.43
2017-12-21T04:44:48.248Z,73.17
2017-12-21T04:47:15.751Z,67.87
2017-12-21T04:49:43.267Z,64.57
2017-12-21T04:52:10.792Z,66.63
2017-12-21T04:54:38.671Z,64.53
2017-12-21T04:57:06.201Z,100.20
2017-12-21T04:59:33.712Z,96.63
2017-12-21T05:02:01.216Z,126.20
2017-12-21T05:04:28.741Z,107.93
2017-12-21T05:06:56.240Z,141.27
2017-12-21T05:09:23.770Z,158.83
2017-12-21T05:11:52.044Z,138.60
2017-12-21T05:14:20.311Z,141.00
2017-12-21T05:16:47.855Z,132.43
2017-12-21T05:19:15.363Z,164.07
2017-12-21T05:21:42.914Z,149.00
2017-12-21T05:24:10.414Z,190.83
2017-12-21T05:26:37.926Z,182.63
2017-12-21T05:29:05.444Z,197.57
2017-12-21T05:31:32.943Z,178.07
2017-12-21T05:34:00.478Z,176.10
2017-12-21T05:36:27.983Z,175.70
2017-12-21T05:38:56.246Z,184.50
2017-12-21T05:41:23.762Z,174.93
2017-12-21T05:43:51.259Z,125.10
2017-12-21T05:46:18.805Z,149.97
2017-12-21T05:48:46.334Z,152.90
2017-12-21T05:51:13.841Z,117.43
2017-12-21T05:53:41.386Z,113.97
2017-12-21T05:56:09.675Z,107.87
2017-12-21T05:58:37.983Z,101.00
2017-12-21T06:01:05.489Z,97.43
2017-12-21T06:03:32.995Z,94.17
2017-12-21T06:06:00.531Z,80.27
2017-12-21T06:08:28.059Z,76.87
2017-12-21T06:10:55.604Z,67.17
2017-12-21T06:13:26.580Z,79.73
2017-12-21T06:15:54.880Z,81.13
2017-12-21T06:18:22.397Z,72.80
2017-12-21T06:20:49.899Z,71.77
2017-12-21T06:23:18.178Z,72.00
2017-12-21T06:25:45.676Z,72.60
2017-12-21T06:28:13.236Z,75.80
2017-12-21T06:30:41.507Z,66.07
2017-12-21T06:33:09.007Z,67.97
2017-12-21T06:35:36.531Z,65.77
2017-12-21T06:38:04.024Z,65.67
2017-12-21T06:40:31.538Z,68.90
2017-12-21T06:42:59.030Z,61.63
2017-12-21T06:45:26.531Z,66.60
2017-12-21T06:47:54.051Z,67.77
2017-12-21T06:50:24.979Z,65.13
2017-12-21T06:52:52.596Z,62.63
2017-12-21T06:55:20.099Z,53.40
2017-12-21T06:57:48.364Z,57.63
2017-12-21T07:00:16.111Z,44.60
2017-12-21T07:02:43.619Z,41.37
2017-12-21T07:05:11.144Z,51.00
2017-12-21T07:07:38.644Z,46.33
2017-12-21T07:10:06.143Z,45.13
2017-12-21T07:12:33.666Z,52.43
2017-12-21T07:15:01.172Z,41.03
2017-12-21T07:17:28.723Z,39.97
2017-12-21T07:19:56.223Z,40.00
2017-12-21T07:22:23.759Z,38.80
2017-12-21T07:24:51.272Z,31.07
2017-12-21T07:27:19.536Z,38.23
2017-12-21T07:29:47.071Z,31.83
2017-12-21T07:32:14.575Z,40.60
2017-12-21T07:34:42.842Z,30.80
2017-12-21T07:37:10.357Z,32.43
2017-12-21T07:39:37.855Z,35.93
2017-12-21T07:42:05.399Z,33.47
2017-12-21T07:44:32.902Z,33.10
2017-12-21T07:47:00.403Z,34.37
2017-12-21T07:49:27.919Z,37.83
2017-12-21T07:51:56.179Z,31.40
2017-12-21T07:54:23.718Z,34.30
2017-12-21T07:56:51.224Z,38.30
2017-12-21T07:59:18.728Z,39.57
2017-12-21T08:01:47.066Z,38.43
2017-12-21T08:04:14.587Z,41.40
2017-12-21T08:06:42.192Z,36.13
2017-12-21T08:09:09.691Z,51.10
2017-12-21T08:11:37.191Z,38.30
2017-12-21T08:14:05.468Z,45.90
2017-12-21T08:16:32.972Z,34.77
2017-12-21T08:19:01.287Z,34.37
2017-12-21T08:21:28.815Z,26.50
2017-12-21T08:23:57.083Z,26.87
2017-12-21T08:26:24.611Z,30.93
2017-12-21T08:28:52.218Z,26.47
2017-12-21T08:31:19.743Z,27.17
2017-12-21T08:33:47.243Z,27.53
2017-12-21T08:36:14.739Z,25.10
2017-12-21T08:38:42.262Z,19.10
2017-12-21T08:41:09.773Z,18.57
2017-12-21T08:43:37.287Z,19.27
2017-12-21T08:46:04.784Z,21.77
2017-12-21T08:48:32.416Z,22.40
2017-12-21T08:50:59.939Z,17.60
2017-12-21T08:53:27.471Z,18.77
2017-12-21T08:55:55.020Z,19.97
2017-12-21T08:58:23.279Z,16.93
2017-12-21T09:00:50.773Z,18.50
2017-12-21T09:03:18.295Z,25.03
2017-12-21T09:05:45.825Z,22.60
2017-12-21T09:08:13.375Z,19.57
2017-12-21T09:10:40.940Z,20.27
2017-12-21T09:13:08.434Z,22.33
2017-12-21T09:15:35.959Z,19.47
2017-12-21T09:18:03.457Z,18.27
2017-12-21T09:20:31.019Z,20.37
2017-12-21T09:22:58.507Z,23.63
2017-12-21T09:25:26.010Z,20.83
2017-12-21T09:27:53.534Z,18.07
2017-12-21T09:30:21.040Z,17.77
2017-12-21T09:32:49.371Z,17.87
2017-12-21T09:35:22.069Z,17.23
2017-12-21T09:37:49.603Z,15.67
2017-12-21T09:40:17.119Z,14.33
2017-12-21T09:42:44.619Z,14.97
2017-12-21T09:45:12.919Z,17.43
2017-12-21T09:47:40.419Z,17.90
2017-12-21T09:50:07.951Z,14.70
2017-12-21T09:52:37.214Z,19.27
2017-12-21T09:55:04.711Z,17.23
2017-12-21T09:57:32.243Z,20.97
2017-12-21T09:59:59.747Z,20.70
2017-12-21T10:02:27.270Z,22.70
2017-12-21T10:04:54.769Z,21.03
2017-12-21T10:07:22.279Z,22.73
2017-12-21T10:09:49.795Z,20.30
2017-12-21T10:12:17.295Z,22.07
2017-12-21T10:14:44.843Z,19.77
2017-12-21T10:17:12.341Z,19.80
2017-12-21T10:19:39.842Z,21.33
2017-12-21T10:22:07.364Z,25.00
2017-12-21T10:24:34.863Z,25.87
2017-12-21T10:27:03.150Z,29.60
2017-12-21T10:29:31.443Z,26.57
2017-12-21T10:31:59.712Z,26.77
2017-12-21T10:34:28.031Z,22.33
2017-12-21T10:36:56.297Z,27.13
2017-12-21T10:39:23.861Z,23.50
2017-12-21T10:41:51.376Z,23.93
2017-12-21T10:44:18.887Z,25.73
2017-12-21T10:46:46.401Z,25.93
2017-12-21T10:49:15.707Z,23.30
2017-12-21T10:51:43.990Z,25.83
2017-12-21T10:54:12.258Z,21.07
2017-12-21T10:56:39.977Z,24.83
2017-12-21T10:59:07.492Z,20.07
2017-12-21T11:01:34.988Z,22.10
2017-12-21T11:04:02.510Z,21.60
2017-12-21T11:06:30.027Z,22.13
2017-12-21T11:08:57.540Z,20.73
2017-12-21T11:11:25.055Z,22.23
2017-12-21T11:13:52.560Z,19.50
2017-12-21T11:16:20.104Z,20.80
2017-12-21T11:18:47.599Z,21.83
2017-12-21T11:21:15.094Z,23.17
2017-12-21T11:23:42.615Z,25.43
2017-12-21T11:26:10.132Z,23.80
2017-12-21T11:28:37.687Z,24.30
2017-12-21T11:31:05.954Z,24.60
2017-12-21T11:33:33.456Z,24.23
2017-12-21T11:36:01.003Z,27.80
2017-12-21T11:38:29.268Z,27.90
2017-12-21T11:40:56.808Z,29.97
2017-12-21T11:43:24.307Z,34.27
2017-12-21T11:45:51.807Z,35.03
2017-12-21T11:48:19.331Z,35.13
2017-12-21T11:50:46.837Z,38.30
2017-12-21T11:53:14.388Z,34.60
2017-12-21T11:55:41.887Z,37.10
2017-12-21T11:58:09.383Z,40.87
2017-12-21T12:00:36.899Z,37.90
2017-12-21T12:03:04.398Z,41.80
2017-12-21T12:05:32.692Z,38.07
2017-12-21T12:08:00.960Z,38.40
2017-12-21T12:10:28.451Z,56.37
2017-12-21T12:12:55.968Z,43.63
2017-12-21T12:15:23.645Z,43.27
2017-12-21T12:17:51.405Z,49.30
2017-12-21T12:20:19.038Z,55.93
2017-12-21T12:22:46.525Z,59.07
2017-12-21T12:25:14.170Z,57.37
2017-12-21T12:27:41.686Z,51.97
2017-12-21T12:30:09.237Z,55.37
2017-12-21T12:32:38.481Z,55.00
2017-12-21T12:35:07.958Z,58.20
2017-12-21T12:37:36.560Z,50.20
2017-12-21T12:40:04.484Z,37.50
2017-12-21T12:42:32.438Z,36.87
2017-12-21T12:45:00.111Z,42.03
2017-12-21T12:47:28.001Z,33.83
2017-12-21T12:49:57.323Z,34.37
2017-12-21T12:52:25.854Z,29.63
2017-12-21T12:54:53.439Z,29.97
2017-12-21T12:57:20.985Z,28.10
2017-12-21T12:59:48.535Z,28.37
2017-12-21T13:02:16.071Z,25.90
2017-12-21T13:04:44.370Z,23.90
2017-12-21T13:07:11.917Z,21.47
2017-12-21T13:09:39.437Z,20.87
2017-12-21T13:12:06.957Z,18.73
2017-12-21T13:14:34.661Z,21.60
2017-12-21T13:17:02.237Z,20.90
2017-12-21T13:19:30.147Z,14.67
2017-12-21T13:21:58.137Z,20.43
2017-12-21T13:24:25.879Z,16.47
2017-12-21T13:26:53.461Z,21.57
2017-12-21T13:29:21.168Z,20.70
2017-12-21T13:31:49.608Z,22.37
2017-12-21T13:34:17.450Z,20.07
2017-12-21T13:36:45.013Z,21.83
2017-12-21T13:39:12.558Z,21.30
2017-12-21T13:41:40.847Z,22.93
2017-12-21T13:44:08.477Z,21.43
2017-12-21T13:46:36.767Z,19.77
2017-12-21T13:49:05.478Z,18.30
2017-12-21T13:51:33.106Z,18.23
2017-12-21T13:54:01.507Z,19.53
2017-12-21T13:56:29.502Z,19.67
2017-12-21T13:58:57.458Z,20.67
2017-12-21T14:01:26.121Z,21.77
2017-12-21T14:03:53.725Z,22.40
2017-12-21T14:06:21.246Z,25.50
2017-12-21T14:08:48.786Z,28.70
2017-12-21T14:11:17.081Z,27.50
2017-12-21T14:13:44.610Z,28.57
2017-12-21T14:16:12.159Z,31.00
2017-12-21T14:18:40.090Z,28.13
2017-12-21T14:21:08.265Z,28.27
2017-12-21T14:23:36.038Z,32.27
2017-12-21T14:26:03.974Z,34.07
2017-12-21T14:28:32.256Z,29.83
2017-12-21T14:31:00.138Z,30.00
2017-12-21T14:33:28.145Z,28.90
2017-12-21T14:35:55.777Z,32.33
2017-12-21T14:38:23.365Z,32.97
2017-12-21T14:40:50.889Z,35.93
2017-12-21T14:43:18.439Z,37.93
2017-12-21T14:45:46.111Z,30.33
2017-12-21T14:48:13.624Z,33.90
2017-12-21T14:50:41.185Z,30.77
2017-12-21T14:53:08.794Z,30.33
2017-12-21T14:55:36.325Z,34.30
2017-12-21T14:58:03.994Z,37.40
2017-12-21T15:00:31.853Z,37.20
2017-12-21T15:03:00.576Z,34.63
2017-12-21T15:05:28.577Z,33.20
2017-12-21T15:07:58.564Z,35.17
2017-12-21T15:10:26.494Z,35.07
2017-12-21T15:12:54.888Z,33.20
2017-12-21T15:15:22.781Z,40.37
2017-12-21T15:17:50.347Z,31.93
2017-12-21T15:20:17.902Z,33.33
2017-12-21T15:22:45.568Z,31.60
2017-12-21T15:25:13.106Z,36.87
2017-12-21T15:27:40.643Z,34.03
2017-12-21T15:30:09.137Z,36.47
2017-12-21T15:32:37.654Z,44.43
2017-12-21T15:35:05.439Z,35.43
2017-12-21T15:37:33.084Z,40.17
2017-12-21T15:40:00.598Z,37.33
2017-12-21T15:42:28.177Z,41.10
2017-12-21T15:44:56.468Z,43.87
2017-12-21T15:47:24.290Z,45.93
2017-12-21T15:49:53.785Z,41.57
2017-12-21T15:52:21.318Z,39.77
2017-12-21T15:54:49.372Z,46.53
2017-12-21T15:57:17.596Z,51.17
2017-12-21T15:59:45.256Z,53.63
2017-12-21T16:02:14.517Z,54.37
2017-12-21T16:04:42.956Z,48.30
2017-12-21T16:07:11.765Z,40.63
2017-12-21T16:09:41.199Z,42.90
2017-12-21T16:12:08.964Z,40.03
2017-12-21T16:14:36.637Z,40.03
2017-12-21T16:17:04.158Z,43.60
2017-12-21T16:19:32.470Z,39.90
2017-12-21T16:22:00.000Z,29.70
2017-12-21T16:24:27.572Z,35.37
2017-12-21T16:26:55.488Z,37.53
2017-12-21T16:29:23.039Z,35.37
2017-12-21T16:31:50.649Z,28.17
2017-12-21T16:34:19.462Z,31.27
2017-12-21T16:36:47.741Z,38.33
2017-12-21T16:39:16.004Z,30.83
2017-12-21T16:41:44.600Z,38.00
2017-12-21T16:44:14.004Z,38.40
2017-12-21T16:46:42.486Z,35.97
2017-12-21T16:49:11.069Z,34.93
2017-12-21T16:51:41.913Z,28.93
2017-12-21T16:54:11.118Z,28.07
2017-12-21T16:56:41.431Z,31.80
2017-12-21T16:59:10.482Z,28.97
2017-12-21T17:01:39.930Z,25.83
2017-12-21T17:04:09.743Z,31.43
2017-12-21T17:06:37.713Z,23.43
2017-12-21T17:09:07.553Z,26.03
2017-12-21T17:11:35.228Z,24.00
2017-12-21T17:14:03.369Z,24.70
2017-12-21T17:16:31.925Z,32.20
2017-12-21T17:18:59.485Z,25.10
2017-12-21T17:21:27.015Z,21.93
2017-12-21T17:23:54.849Z,21.93
2017-12-21T17:26:22.414Z,21.60
2017-12-21T17:28:50.912Z,20.63
2017-12-21T17:31:19.360Z,18.93
2017-12-21T17:33:48.347Z,19.40
2017-12-21T17:36:17.312Z,19.00
2017-12-21T17:38:45.917Z,25.10
2017-12-21T17:41:15.719Z,19.20
2017-12-21T17:43:44.639Z,22.63
2017-12-21T17:46:13.385Z,22.60
2017-12-21T17:48:42.029Z,22.83
2017-12-21T17:51:10.751Z,20.93
2017-12-21T17:53:40.835Z,27.80
2017-12-21T17:56:10.830Z,24.37
2017-12-21T17:58:40.316Z,26.13
2017-12-21T18:01:09.892Z,23.97
2017-12-21T18:03:41.860Z,24.17
2017-12-21T18:06:11.237Z,22.93
2017-12-21T18:08:40.617Z,35.30
2017-12-21T18:11:10.383Z,36.23
2017-12-21T18:13:40.991Z,27.23
2017-12-21T18:16:12.541Z,28.03
2017-12-21T18:18:42.269Z,43.43
2017-12-21T18:21:12.178Z,38.57
2017-12-21T18:23:42.573Z,42.33
2017-12-21T18:26:12.723Z,50.33
2017-12-21T18:28:41.788Z,60.87
2017-12-21T18:31:11.607Z,37.93
2017-12-21T18:33:44.945Z,32.53
2017-12-21T18:36:14.289Z,29.07
2017-12-21T18:38:44.150Z,29.00
2017-12-21T18:41:11.981Z,29.33
2017-12-21T18:43:41.896Z,33.77
2017-12-21T18:46:11.674Z,27.20
2017-12-21T18:48:42.920Z,23.80
2017-12-21T18:51:11.745Z,30.13
2017-12-21T18:53:40.497Z,27.80
2017-12-21T18:56:09.609Z,31.23
2017-12-21T18:58:40.847Z,29.10
2017-12-21T19:01:09.226Z,28.57
2017-12-21T19:03:40.522Z,30.00
2017-12-21T19:06:10.881Z,28.77
2017-12-21T19:08:40.303Z,28.37
2017-12-21T19:11:09.807Z,32.00
2017-12-21T19:13:38.707Z,32.07
2017-12-21T19:16:06.339Z,30.37
2017-12-21T19:18:34.554Z,25.73
2017-12-21T19:21:03.224Z,32.10
2017-12-21T19:23:31.577Z,35.67
2017-12-21T19:25:59.853Z,30.77
2017-12-21T19:28:28.174Z,28.97
2017-12-21T19:30:56.968Z,28.80
2017-12-21T19:33:24.528Z,33.60
2017-12-21T19:35:53.016Z,32.53
2017-12-21T19:38:21.391Z,32.03
2017-12-21T19:40:49.525Z,27.57
2017-12-21T19:43:17.883Z,38.70
2017-12-21T19:45:47.481Z,35.73
2017-12-21T19:48:16.766Z,31.73
2017-12-21T19:50:45.488Z,32.40
2017-12-21T19:53:14.620Z,29.80
2017-12-21T19:55:43.639Z,30.43
2017-12-21T19:58:11.493Z,30.70
2017-12-21T20:00:41.602Z,27.83
2017-12-21T20:03:10.875Z,28.90
2017-12-21T20:05:38.773Z,30.83
2017-12-21T20:08:11.082Z,33.30
2017-12-21T20:10:40.543Z,28.53
2017-12-21T20:13:08.626Z,32.97
2017-12-21T20:15:37.935Z,28.57
2017-12-21T20:18:05.782Z,28.33
2017-12-21T20:20:33.337Z,34.67
2017-12-21T20:23:00.933Z,28.97
2017-12-21T20:25:28.505Z,31.23
2017-12-21T20:27:56.025Z,34.63
2017-12-21T20:30:24.322Z,31.67
2017-12-21T20:32:52.095Z,30.57
2017-12-21T20:35:20.343Z,47.03
2017-12-21T20:37:48.931Z,36.10
2017-12-21T20:40:17.142Z,34.57
2017-12-21T20:42:45.683Z,32.23
2017-12-21T20:45:14.272Z,36.87
2017-12-21T20:47:43.104Z,30.07
2017-12-21T20:50:13.109Z,33.30
2017-12-21T20:52:41.153Z,27.60
2017-12-21T20:55:09.501Z,29.40
2017-12-21T20:57:38.119Z,27.23
2017-12-21T21:00:05.910Z,23.47
2017-12-21T21:02:33.440Z,27.40
2017-12-21T21:05:00.998Z,29.27
2017-12-21T21:07:29.490Z,30.60
2017-12-21T21:09:57.013Z,25.00
2017-12-21T21:12:25.350Z,21.37
2017-12-21T21:14:52.877Z,20.73
2017-12-21T21:17:20.397Z,18.43
2017-12-21T21:19:49.327Z,23.30
2017-12-21T21:22:17.713Z,22.60
2017-12-21T21:24:45.863Z,14.63
2017-12-21T21:27:14.322Z,16.60
2017-12-21T21:29:43.673Z,12.33
2017-12-21T21:32:13.380Z,15.53
2017-12-21T21:34:42.056Z,13.37
2017-12-21T21:37:12.721Z,8.77
2017-12-21T21:39:41.634Z,12.10
2017-12-21T21:42:10.339Z,10.07
2017-12-21T21:44:41.169Z,8.80
2017-12-21T21:47:13.759Z,10.90
2017-12-21T21:49:44.915Z,9.83
2017-12-21T21:52:15.220Z,9.20
2017-12-21T21:54:45.786Z,8.70
2017-12-21T21:57:16.662Z,8.93
2017-12-21T21:59:45.530Z,8.40
2017-12-21T22:02:13.564Z,9.90
2017-12-21T22:04:41.671Z,11.77
2017-12-21T22:07:10.680Z,12.30
2017-12-21T22:09:39.161Z,11.07
2017-12-21T22:12:08.663Z,10.20
2017-12-21T22:14:36.522Z,8.77
2017-12-21T22:17:04.627Z,9.53
2017-12-21T22:19:33.486Z,9.30
2017-12-21T22:22:01.867Z,9.63
2017-12-21T22:24:29.459Z,10.20
2017-12-21T22:26:56.977Z,9.37
2017-12-21T22:29:24.499Z,8.53
2017-12-21T22:31:52.801Z,12.53
2017-12-21T22:34:21.413Z,11.33
2017-12-21T22:36:49.941Z,6.87
2017-12-21T22:39:18.473Z,5.37
2017-12-21T22:41:46.170Z,6.13
2017-12-21T22:44:14.678Z,6.00
2017-12-21T22:46:44.637Z,6.60
2017-12-21T22:49:15.210Z,7.33
2017-12-21T22:51:46.243Z,7.10
2017-12-21T22:54:16.396Z,7.47
2017-12-21T22:56:45.290Z,7.17
2017-12-21T22:59:13.600Z,6.00
2017-12-21T23:01:41.980Z,7.20
2017-12-21T23:04:10.294Z,6.50
2017-12-21T23:06:39.643Z,5.03
2017-12-21T23:09:07.173Z,7.00
2017-12-21T23:11:35.476Z,5.60
2017-12-21T23:14:03.785Z,7.00
2017-12-21T23:16:31.293Z,7.07
2017-12-21T23:18:59.593Z,5.53
2017-12-21T23:21:27.127Z,7.83
2017-12-21T23:23:55.420Z,6.90
2017-12-21T23:26:23.743Z,6.43
2017-12-21T23:28:51.347Z,5.63
2017-12-21T23:31:19.848Z,6.60
2017-12-21T23:33:47.597Z,7.13
2017-12-21T23:36:15.220Z,6.30
2017-12-21T23:38:44.133Z,7.63
2017-12-21T23:41:11.984Z,7.03
2017-12-21T23:43:41.257Z,6.97
2017-12-21T23:46:10.411Z,8.10
2017-12-21T23:48:38.052Z,7.70
2017-12-21T23:51:05.693Z,8.63
2017-12-21T23:53:33.206Z,6.87
2017-12-21T23:56:01.606Z,6.70
2017-12-21T23:58:29.113Z,9.33
